createdAt,value
2017-05-30T00:09:00.843Z,22.1
2017-05-30T00:19:15.655Z,23.2
2017-05-30T00:29:30.791Z,23.3
2017-05-30T00:39:45.312Z,22.8
2017-05-30T00:50:00.053Z,22.3
2017-05-30T01:00:15.004Z,21.7
2017-05-30T01:10:30.118Z,21.4
2017-05-30T01:20:44.213Z,21.4
2017-05-30T01:30:58.501Z,21.2
2017-05-30T01:41:12.610Z,21.1
2017-05-30T01:51:28.387Z,21.3
2017-05-30T02:01:43.033Z,21.2
2017-05-30T02:11:58.339Z,21.1
2017-05-30T02:22:14.047Z,21
2017-05-30T02:32:29.442Z,20.6
2017-05-30T02:42:44.144Z,20.4
2017-05-30T02:52:58.319Z,20.2
2017-05-30T03:03:13.837Z,20.3
2017-05-30T03:13:28.756Z,20.4
2017-05-30T03:23:44.547Z,20.7
2017-05-30T03:33:58.791Z,20.7
2017-05-30T03:44:12.628Z,20.3
2017-05-30T03:54:28.087Z,19.8
2017-05-30T04:04:43.028Z,19.7
2017-05-30T04:14:57.344Z,20
2017-05-30T04:25:12.859Z,20.2
2017-05-30T04:35:27.893Z,19.7
2017-05-30T04:45:43.082Z,19.7
2017-05-30T04:55:58.103Z,20
2017-05-30T05:06:12.602Z,20.2
2017-05-30T05:16:27.041Z,20.4
2017-05-30T05:26:41.635Z,20.5
2017-05-30T05:36:56.011Z,20.7
2017-05-30T05:47:11.648Z,21
2017-05-30T05:57:26.775Z,21
2017-05-30T06:07:40.727Z,21.3
2017-05-30T06:17:56.431Z,22
2017-05-30T06:28:11.923Z,22.3
2017-05-30T06:38:27.257Z,22.4
2017-05-30T06:48:41.523Z,22.6
2017-05-30T06:58:55.434Z,22.1
2017-05-30T07:09:09.680Z,22
2017-05-30T07:19:24.597Z,22.4
2017-05-30T07:29:40.251Z,23.5
2017-05-30T07:39:54.475Z,24.4
2017-05-30T07:50:09.851Z,24.4
2017-05-30T08:00:25.720Z,25.3
2017-05-30T08:10:40.757Z,24.7
2017-05-30T08:20:55.757Z,25.4
2017-05-30T08:31:10.881Z,26.1
2017-05-30T08:41:26.081Z,25.8
2017-05-30T08:51:41.228Z,26
2017-05-30T09:01:56.464Z,27
2017-05-30T09:12:12.127Z,25.8
2017-05-30T09:22:27.252Z,26.6
2017-05-30T09:32:42.325Z,25.3
2017-05-30T09:42:56.599Z,25.7
2017-05-30T09:53:10.985Z,25.2
2017-05-30T10:03:25.208Z,25.7
2017-05-30T10:13:39.587Z,25.4
2017-05-30T10:23:55.342Z,25.1
2017-05-30T10:34:10.541Z,26.2
2017-05-30T10:44:24.704Z,27.7
2017-05-30T10:54:40.046Z,27.1
2017-05-30T11:04:54.496Z,27.8
2017-05-30T11:15:08.990Z,26.8
2017-05-30T11:25:24.336Z,24.9
2017-05-30T11:35:39.804Z,24.4
2017-05-30T11:45:54.251Z,26.7
2017-05-30T11:56:09.928Z,25.1
2017-05-30T12:06:24.284Z,21.1
2017-05-30T12:16:39.512Z,20.7
2017-05-30T12:26:53.788Z,21.8
2017-05-30T12:37:09.650Z,22.1
2017-05-30T12:47:24.811Z,23
2017-05-30T12:57:38.884Z,22.2
2017-05-30T13:07:54.523Z,21.1
2017-05-30T13:18:10.088Z,21.2
2017-05-30T13:28:24.986Z,21.5
2017-05-30T13:38:40.642Z,21.8
2017-05-30T13:48:55.509Z,23.3
2017-05-30T13:59:10.422Z,23.6
2017-05-30T14:09:25.186Z,23.8
2017-05-30T14:19:39.639Z,23.7
2017-05-30T14:29:54.852Z,23.7
2017-05-30T14:40:08.909Z,23.7
2017-05-30T14:50:22.973Z,22.4
2017-05-30T15:00:38.542Z,22.5
2017-05-30T15:10:54.351Z,22.3
2017-05-30T15:21:09.380Z,22.3
2017-05-30T15:31:23.629Z,22.1
2017-05-30T15:41:38.570Z,23.5
2017-05-30T15:51:53.494Z,23.8
2017-05-30T16:02:09.109Z,22.9
2017-05-30T16:12:24.364Z,23.4
2017-05-30T16:22:40.002Z,23.1
2017-05-30T16:32:54.720Z,22.4
2017-05-30T16:43:08.584Z,21.1
2017-05-30T16:53:24.367Z,21.6
2017-05-30T17:03:39.647Z,21.2
2017-05-30T17:13:54.550Z,21.6
2017-05-30T17:24:08.933Z,21
2017-05-30T17:34:24.041Z,21.3
2017-05-30T17:44:39.186Z,20.6
2017-05-30T17:54:54.865Z,20.9
2017-05-30T18:05:08.754Z,20.7
2017-05-30T18:15:24.388Z,20.7
2017-05-30T18:25:38.992Z,20.4
2017-05-30T18:35:53.730Z,20.4
2017-05-30T18:46:08.471Z,20.3
2017-05-30T18:56:23.469Z,20
2017-05-30T19:06:38.151Z,19.7
2017-05-30T19:16:53.555Z,19.7
2017-05-30T19:27:07.663Z,19.4
2017-05-30T19:37:21.573Z,19
2017-05-30T19:47:36.789Z,18.4
2017-05-30T19:57:50.701Z,18.2
2017-05-30T20:08:06.221Z,17.5
2017-05-30T20:18:21.957Z,16.9
2017-05-30T20:28:35.768Z,17.4
2017-05-30T20:38:50.680Z,17.2
2017-05-30T20:49:05.356Z,17.2
2017-05-30T20:59:19.259Z,16.5
2017-05-30T21:09:34.690Z,16.5
2017-05-30T21:19:48.737Z,16.8
2017-05-30T21:30:03.235Z,17.2
2017-05-30T21:40:18.859Z,17.1
2017-05-30T21:50:33.598Z,16.7
2017-05-30T22:00:48.825Z,16.2
2017-05-30T22:11:03.345Z,15.6
2017-05-30T22:21:17.269Z,15.1
2017-05-30T22:31:32.075Z,14.8
2017-05-30T22:41:46.861Z,14.6
2017-05-30T22:52:00.816Z,14.8
2017-05-30T23:02:16.086Z,14.7
2017-05-30T23:12:31.295Z,14.7
2017-05-30T23:22:46.050Z,14.8
2017-05-30T23:33:01.431Z,14.8
2017-05-30T23:43:16.151Z,14.9
2017-05-30T23:53:30.420Z,14.7
